Time;durP1;ratioP1;P1;durP2;ratioP2;P2;SDS_P1;SDS_P2;PMS_P1;PMS_P2;Temp;Humidity;BMP_temperature;BMP_pressure;BME280_temperature;BME280_humidity;BME280_pressure;Samples;Min_cycle;Max_cycle;Signal;HPM_P1;HPM_P2
2022/03/01 00:00:24;;;;;;;13.03;9.00;;;;;;;-1.13;100.00;97533.31;5031377;27;102096;-62
2022/03/01 00:02:51;;;;;;;15.17;8.10;;;;;;;-1.30;100.00;97532.38;5030725;28;105146;-62
2022/03/01 00:05:18;;;;;;;14.97;9.43;;;;;;;-1.74;100.00;97533.25;5030323;28;106634;-62
2022/03/01 00:07:45;;;;;;;14.93;8.80;;;;;;;-1.83;100.00;97534.09;5032442;28;101796;-62
2022/03/01 00:10:12;;;;;;;14.27;8.93;;;;;;;-1.68;100.00;97531.81;5031051;28;105157;-62
2022/03/01 00:12:39;;;;;;;14.10;9.17;;;;;;;-1.63;100.00;97525.22;5029954;28;105408;-62
2022/03/01 00:15:06;;;;;;;14.40;8.70;;;;;;;-1.55;100.00;97534.88;5034177;28;101861;-62
2022/03/01 00:17:35;;;;;;;14.40;8.60;;;;;;;-1.51;100.00;97539.66;5030253;28;105791;-63
2022/03/01 00:20:02;;;;;;;15.13;8.93;;;;;;;-1.53;100.00;97530.34;5032283;28;102066;-63
2022/03/01 00:22:29;;;;;;;15.30;10.07;;;;;;;-1.78;100.00;97537.09;5030508;28;105140;-62
2022/03/01 00:24:56;;;;;;;13.53;8.97;;;;;;;-1.70;100.00;97534.56;5029183;28;104226;-63
2022/03/01 00:27:23;;;;;;;13.40;7.70;;;;;;;-1.76;100.00;97527.34;5030569;28;102193;-63
2022/03/01 00:29:50;;;;;;;14.17;8.77;;;;;;;-1.93;100.00;97522.91;5030136;28;104818;-62
2022/03/01 00:32:18;;;;;;;12.57;8.20;;;;;;;-2.17;100.00;97525.25;5029886;28;106071;-63
2022/03/01 00:34:47;;;;;;;13.40;8.33;;;;;;;-2.20;100.00;97530.72;5031690;28;101898;-62
2022/03/01 00:37:14;;;;;;;12.10;8.07;;;;;;;-1.99;100.00;97513.06;5033319;28;105244;-62
2022/03/01 00:39:41;;;;;;;10.40;8.03;;;;;;;-1.93;100.00;97515.09;5030577;28;101904;-62
2022/03/01 00:42:08;;;;;;;12.07;7.83;;;;;;;-1.94;100.00;97510.84;5031771;28;102393;-62
2022/03/01 00:44:36;;;;;;;13.17;8.03;;;;;;;-2.03;100.00;97511.72;5029616;28;104023;-62
2022/03/01 00:47:04;;;;;;;11.53;7.60;;;;;;;-2.06;100.00;97506.81;5030103;27;102003;-62
2022/03/01 00:49:31;;;;;;;11.57;7.47;;;;;;;-2.10;100.00;97505.44;5030579;28;102428;-62
2022/03/01 00:51:59;;;;;;;12.37;8.80;;;;;;;-2.04;100.00;97510.06;5031245;28;103167;-62
2022/03/01 00:54:26;;;;;;;10.87;7.00;;;;;;;-2.03;100.00;97510.91;5029934;28;102194;-62
2022/03/01 00:56:53;;;;;;;12.47;8.03;;;;;;;-2.10;100.00;97510.66;5030318;28;105023;-62
2022/03/01 00:59:20;;;;;;;11.83;7.40;;;;;;;-2.45;100.00;97512.31;5034474;27;103161;-62
2022/03/01 01:01:47;;;;;;;11.13;7.47;;;;;;;-2.60;100.00;97516.34;5030290;28;105352;-62
2022/03/01 01:04:14;;;;;;;10.87;7.30;;;;;;;-2.80;100.00;97509.56;5030561;28;103181;-62
2022/03/01 01:06:41;;;;;;;13.37;8.57;;;;;;;-2.58;100.00;97504.84;5030155;28;101862;-63
2022/03/01 01:09:12;;;;;;;14.20;6.90;;;;;;;-2.63;100.00;97507.03;5029868;28;105336;-63
2022/03/01 01:11:41;;;;;;;10.97;7.30;;;;;;;-2.49;100.00;97510.97;5030775;27;102519;-62
2022/03/01 01:14:08;;;;;;;13.13;7.83;;;;;;;-2.45;100.00;97504.50;5031285;27;101775;-63
2022/03/01 01:16:35;;;;;;;10.43;7.63;;;;;;;-2.52;100.00;97508.66;5031463;28;102409;-62
2022/03/01 01:19:02;;;;;;;10.90;7.20;;;;;;;-2.49;100.00;97503.16;5030461;28;102731;-62
2022/03/01 01:22:39;;;;;;;10.47;7.33;;;;;;;-2.45;100.00;97501.91;5033331;28;101843;-62
2022/03/01 01:24:17;;;;;;;10.43;7.03;;;;;;;-2.50;100.00;97504.97;5028385;28;105369;-62
2022/03/01 01:26:44;;;;;;;10.90;7.20;;;;;;;-2.45;100.00;97494.94;5031101;27;101795;-62
2022/03/01 01:29:12;;;;;;;12.77;8.33;;;;;;;-2.44;100.00;97499.16;5030594;28;102682;-63
2022/03/01 01:31:38;;;;;;;12.17;7.70;;;;;;;-2.61;100.00;97493.88;5030383;28;103150;-63
2022/03/01 01:34:05;;;;;;;12.00;7.23;;;;;;;-2.99;100.00;97494.81;5029288;28;101949;-62
2022/03/01 01:36:32;;;;;;;11.73;7.17;;;;;;;-2.84;100.00;97498.59;5029535;28;105226;-62
2022/03/01 01:39:00;;;;;;;9.67;7.13;;;;;;;-2.83;100.00;97497.66;5030251;28;103196;-62
2022/03/01 01:41:28;;;;;;;11.47;7.27;;;;;;;-2.71;100.00;97493.91;5034494;27;101712;-62
2022/03/01 01:43:55;;;;;;;11.27;7.13;;;;;;;-2.77;100.00;97497.09;5028921;28;106156;-62
2022/03/01 01:46:22;;;;;;;10.67;7.03;;;;;;;-2.82;100.00;97494.09;5030681;28;101841;-62
2022/03/01 01:48:49;;;;;;;11.73;7.47;;;;;;;-2.77;100.00;97494.50;5030348;27;104061;-63
2022/03/01 01:51:16;;;;;;;13.43;7.37;;;;;;;-2.69;100.00;97493.78;5030299;28;102807;-62
2022/03/01 01:53:43;;;;;;;12.07;7.30;;;;;;;-2.65;100.00;97490.75;5029341;28;102027;-62
2022/03/01 01:56:10;;;;;;;11.73;7.67;;;;;;;-3.06;100.00;97492.91;5030437;28;102374;-62
2022/03/01 01:58:39;;;;;;;11.17;7.07;;;;;;;-3.39;100.00;97493.38;5030030;28;102597;-62
2022/03/01 02:01:06;;;;;;;10.57;7.43;;;;;;;-3.52;100.00;97488.44;5028975;28;101845;-62
2022/03/01 02:03:33;;;;;;;12.27;7.73;;;;;;;-3.61;100.00;97484.03;5031807;28;105200;-62
2022/03/01 02:06:00;;;;;;;13.30;8.37;;;;;;;-3.38;100.00;97479.41;5028789;28;101867;-62
2022/03/01 02:08:30;;;;;;;11.13;8.07;;;;;;;-3.65;100.00;97480.06;5030495;28;102907;-62
2022/03/01 02:10:57;;;;;;;10.90;7.60;;;;;;;-3.58;100.00;97478.59;5029983;27;102510;-62
2022/03/01 02:13:25;;;;;;;12.37;8.13;;;;;;;-3.43;100.00;97476.38;5030613;27;101746;-62
2022/03/01 02:15:54;;;;;;;12.93;7.40;;;;;;;-3.47;100.00;97475.00;5028920;28;105603;-62
2022/03/01 02:18:21;;;;;;;10.60;7.67;;;;;;;-3.53;100.00;97472.97;5029668;28;102762;-62
2022/03/01 02:20:50;;;;;;;10.90;7.43;;;;;;;-3.65;100.00;97467.06;5030523;27;101882;-62
2022/03/01 02:23:17;;;;;;;11.93;8.10;;;;;;;-3.75;100.00;97461.09;5030294;27;102604;-62
2022/03/01 02:25:44;;;;;;;11.10;7.60;;;;;;;-3.87;100.00;97459.53;5031636;28;105447;-62
2022/03/01 02:28:11;;;;;;;11.83;7.53;;;;;;;-3.71;100.00;97461.63;5028848;28;105188;-62
2022/03/01 02:30:37;;;;;;;12.00;7.27;;;;;;;-3.58;100.00;97457.78;5029076;28;102922;-63
2022/03/01 02:33:04;;;;;;;14.13;8.07;;;;;;;-3.58;100.00;97455.19;5030168;27;101818;-62
2022/03/01 02:35:31;;;;;;;11.50;7.33;;;;;;;-3.52;100.00;97453.81;5030192;28;102341;-62
2022/03/01 02:38:00;;;;;;;12.80;7.33;;;;;;;-3.46;100.00;97454.09;5029543;28;102067;-62
2022/03/01 02:40:27;;;;;;;11.03;7.57;;;;;;;-3.30;100.00;97456.94;5029938;27;101839;-63
2022/03/01 02:42:54;;;;;;;12.73;7.83;;;;;;;-3.37;100.00;97448.06;5030073;28;102894;-62
2022/03/01 02:45:20;;;;;;;11.73;7.70;;;;;;;-3.43;100.00;97443.41;5027979;28;106455;-62
2022/03/01 02:47:48;;;;;;;12.33;7.33;;;;;;;-3.46;100.00;97448.06;5031833;28;102070;-63
2022/03/01 02:50:16;;;;;;;11.80;7.87;;;;;;;-3.42;100.00;97445.06;5027731;28;105371;-62
2022/03/01 02:52:43;;;;;;;13.50;7.30;;;;;;;-3.40;100.00;97445.72;5028288;28;101972;-62
2022/03/01 02:55:12;;;;;;;12.13;7.40;;;;;;;-3.42;100.00;97442.47;5029837;27;102285;-62
2022/03/01 02:57:39;;;;;;;12.03;7.30;;;;;;;-3.53;100.00;97447.81;5029314;28;102830;-62
2022/03/01 03:00:07;;;;;;;11.00;7.00;;;;;;;-3.41;100.00;97441.50;5028416;28;101923;-62
2022/03/01 03:02:34;;;;;;;12.40;7.97;;;;;;;-3.58;100.00;97442.19;5029587;27;102450;-62
2022/03/01 03:05:01;;;;;;;9.53;6.67;;;;;;;-3.67;100.00;97450.81;5027778;28;104727;-62
2022/03/01 03:07:27;;;;;;;12.33;7.47;;;;;;;-3.82;100.00;97438.38;5028251;28;101932;-62
2022/03/01 03:09:54;;;;;;;10.73;6.63;;;;;;;-3.81;100.00;97437.41;5031176;28;105667;-62
2022/03/01 03:12:23;;;;;;;11.73;7.07;;;;;;;-3.91;100.00;97431.38;5031682;27;101842;-62
2022/03/01 03:14:50;;;;;;;10.73;7.37;;;;;;;-3.90;100.00;97431.25;5031895;28;105495;-62
2022/03/01 03:17:18;;;;;;;9.97;7.03;;;;;;;-4.01;100.00;97439.19;5031041;28;106628;-62
2022/03/01 03:19:45;;;;;;;8.63;6.70;;;;;;;-3.85;100.00;97433.44;5031881;28;102171;-62
2022/03/01 03:22:12;;;;;;;10.23;6.87;;;;;;;-3.77;100.00;97428.38;5032965;27;102583;-63
2022/03/01 03:24:39;;;;;;;12.27;7.70;;;;;;;-3.69;100.00;97426.75;5031062;28;105351;-62
2022/03/01 03:27:06;;;;;;;11.37;7.77;;;;;;;-3.57;100.00;97432.59;5033125;28;101974;-62
2022/03/01 03:29:35;;;;;;;13.13;7.50;;;;;;;-3.51;100.00;97426.84;5031330;28;105478;-62
2022/03/01 03:32:02;;;;;;;10.60;7.00;;;;;;;-3.46;100.00;97425.47;5036014;28;102651;-62
2022/03/01 03:34:29;;;;;;;14.53;8.30;;;;;;;-3.57;100.00;97420.44;5031105;28;105876;-63
2022/03/01 03:36:56;;;;;;;11.80;7.60;;;;;;;-3.55;100.00;97428.09;5032101;27;102462;-62
2022/03/01 03:39:23;;;;;;;10.17;6.97;;;;;;;-3.57;100.00;97422.19;5032864;27;101817;-62
2022/03/01 03:41:51;;;;;;;10.07;6.80;;;;;;;-3.58;100.00;97424.00;5032938;28;102309;-62
2022/03/01 03:44:18;;;;;;;11.30;6.73;;;;;;;-3.59;100.00;97426.72;5032110;28;102614;-62
2022/03/01 03:46:46;;;;;;;9.40;6.90;;;;;;;-3.60;100.00;97414.69;5032779;27;101920;-62
2022/03/01 03:49:13;;;;;;;9.97;6.83;;;;;;;-3.68;100.00;97419.75;5030963;28;105741;-62
2022/03/01 03:51:39;;;;;;;10.27;7.73;;;;;;;-3.87;100.00;97423.16;5035606;28;102513;-62
2022/03/01 03:54:06;;;;;;;12.13;7.07;;;;;;;-3.87;100.00;97417.97;5032615;28;102940;-62
2022/03/01 03:56:34;;;;;;;12.00;6.87;;;;;;;-3.84;100.00;97415.13;5031774;28;102725;-62
2022/03/01 03:59:01;;;;;;;12.50;7.87;;;;;;;-3.85;100.00;97410.06;5031103;28;101897;-62
2022/03/01 04:01:27;;;;;;;11.77;7.67;;;;;;;-3.74;100.00;97413.34;5032549;27;101721;-62
2022/03/01 04:03:58;;;;;;;11.37;7.30;;;;;;;-3.79;100.00;97415.53;5031723;28;102748;-62
2022/03/01 04:06:26;;;;;;;12.23;7.33;;;;;;;-3.86;100.00;97421.41;5032500;27;101667;-62
2022/03/01 04:08:53;;;;;;;11.43;7.53;;;;;;;-3.99;100.00;97419.06;5032379;27;102373;-62
2022/03/01 04:11:20;;;;;;;12.07;7.40;;;;;;;-3.95;100.00;97420.44;5031672;28;103201;-62
2022/03/01 04:13:46;;;;;;;12.00;7.87;;;;;;;-4.01;100.00;97415.78;5035520;27;101824;-62
2022/03/01 04:16:13;;;;;;;13.17;7.67;;;;;;;-4.07;100.00;97415.50;5013495;28;105817;-62
2022/03/01 04:18:41;;;;;;;13.67;7.77;;;;;;;-3.96;100.00;97421.41;5032105;28;101821;-62
2022/03/01 04:21:10;;;;;;;10.37;7.47;;;;;;;-4.08;100.00;97412.09;5030782;28;104503;-62
2022/03/01 04:23:38;;;;;;;12.57;7.17;;;;;;;-4.09;100.00;97420.84;5029844;27;105033;-62
2022/03/01 04:26:04;;;;;;;11.83;7.30;;;;;;;-4.10;100.00;97416.59;5030494;28;101866;-62
2022/03/01 04:28:32;;;;;;;11.00;7.63;;;;;;;-4.22;100.00;97428.06;5030745;28;105089;-62
2022/03/01 04:30:58;;;;;;;13.00;7.83;;;;;;;-4.15;100.00;97423.97;5029674;28;105248;-62
2022/03/01 04:33:25;;;;;;;11.27;7.63;;;;;;;-4.15;100.00;97423.97;5030387;28;101875;-62
2022/03/01 04:35:52;;;;;;;11.87;7.27;;;;;;;-4.15;100.00;97415.38;5032841;28;106148;-62
2022/03/01 04:38:25;;;;;;;12.57;7.67;;;;;;;-4.19;100.00;97422.63;5030637;28;101954;-62
2022/03/01 04:40:52;;;;;;;11.37;7.60;;;;;;;-4.26;100.00;97411.09;5030475;28;105446;-62
2022/03/01 04:43:19;;;;;;;9.63;7.07;;;;;;;-4.21;100.00;97414.13;5029819;28;105333;-62
2022/03/01 04:45:46;;;;;;;12.87;7.53;;;;;;;-4.04;100.00;97415.25;5030439;28;102028;-62
2022/03/01 04:48:15;;;;;;;11.57;7.90;;;;;;;-4.06;100.00;97411.94;5029928;28;105225;-63
2022/03/01 04:50:42;;;;;;;11.37;7.30;;;;;;;-4.11;100.00;97409.78;5029530;28;105155;-62
2022/03/01 04:53:08;;;;;;;11.27;7.70;;;;;;;-4.13;100.00;97406.50;5030295;28;101901;-63
2022/03/01 04:55:36;;;;;;;11.47;7.07;;;;;;;-4.03;100.00;97407.34;5030107;28;105136;-62
2022/03/01 04:58:04;;;;;;;10.70;7.10;;;;;;;-4.12;100.00;97404.69;5032998;28;105029;-62
2022/03/01 05:00:31;;;;;;;10.43;7.30;;;;;;;-4.12;100.00;97400.34;5029992;28;104801;-62
2022/03/01 05:02:58;;;;;;;13.63;8.20;;;;;;;-4.31;100.00;97400.31;5030849;27;102859;-62
2022/03/01 05:05:25;;;;;;;16.93;8.63;;;;;;;-4.69;100.00;97402.00;5031573;28;101977;-62
2022/03/01 05:07:52;;;;;;;14.23;8.07;;;;;;;-4.83;100.00;97405.78;5030002;28;105552;-62
2022/03/01 05:10:21;;;;;;;15.63;8.30;;;;;;;-4.69;100.00;97402.00;5030667;28;103041;-62
2022/03/01 05:12:52;;;;;;;11.80;7.77;;;;;;;-4.57;100.00;97399.19;5029946;28;101868;-62
2022/03/01 05:15:21;;;;;;;10.13;7.23;;;;;;;-4.49;100.00;97408.88;5031477;27;102975;-62
2022/03/01 05:17:48;;;;;;;11.03;7.67;;;;;;;-4.42;100.00;97400.41;5029130;28;105392;-62
2022/03/01 05:20:16;;;;;;;13.43;8.00;;;;;;;-4.34;100.00;97405.78;5034904;28;101697;-62
2022/03/01 05:22:44;;;;;;;12.03;7.07;;;;;;;-4.37;100.00;97408.63;5029089;28;105790;-62
2022/03/01 05:25:12;;;;;;;12.17;7.77;;;;;;;-4.46;100.00;97414.66;5029659;28;101858;-62
2022/03/01 05:27:41;;;;;;;13.23;8.10;;;;;;;-4.46;100.00;97417.25;5031162;28;102892;-62
2022/03/01 05:30:13;;;;;;;11.93;8.10;;;;;;;-4.45;100.00;97424.06;5030583;28;103048;-62
2022/03/01 05:32:42;;;;;;;15.00;8.30;;;;;;;-4.40;100.00;97421.06;5029508;28;102190;-62
2022/03/01 05:35:13;;;;;;;10.27;7.73;;;;;;;-4.33;100.00;97417.81;5028547;27;105161;-62
2022/03/01 05:37:41;;;;;;;12.73;8.23;;;;;;;-4.25;100.00;97430.13;5030336;27;103570;-62
2022/03/01 05:40:09;;;;;;;14.53;9.03;;;;;;;-4.18;100.00;97424.25;5029605;28;101812;-62
2022/03/01 05:42:37;;;;;;;13.00;8.57;;;;;;;-4.15;100.00;97434.34;5032280;28;105422;-62
2022/03/01 05:45:05;;;;;;;10.80;7.17;;;;;;;-4.12;100.00;97436.69;5030743;28;101730;-62
2022/03/01 05:47:37;;;;;;;13.07;8.33;;;;;;;-4.13;100.00;97439.44;5030557;27;102331;-62
2022/03/01 05:50:05;;;;;;;11.37;7.80;;;;;;;-4.23;100.00;97436.81;5028822;28;105787;-62
2022/03/01 05:52:32;;;;;;;10.87;7.40;;;;;;;-4.33;100.00;97441.16;5029100;28;101869;-62
2022/03/01 05:54:59;;;;;;;12.70;8.47;;;;;;;-4.37;100.00;97444.97;5030572;28;102854;-62
2022/03/01 05:57:28;;;;;;;13.33;9.10;;;;;;;-4.32;100.00;97448.00;5028291;28;105562;-62
2022/03/01 05:59:55;;;;;;;15.23;10.00;;;;;;;-4.34;100.00;97449.91;5030809;28;102027;-62
2022/03/01 06:02:22;;;;;;;12.97;8.30;;;;;;;-4.42;100.00;97452.34;5028103;27;102295;-63
2022/03/01 06:04:52;;;;;;;12.47;8.73;;;;;;;-4.46;100.00;97453.59;5023753;28;101973;-63
2022/03/01 06:07:19;;;;;;;15.63;8.77;;;;;;;-4.43;100.00;97450.69;5029970;28;102390;-63
2022/03/01 06:09:46;;;;;;;10.90;8.13;;;;;;;-4.34;100.00;97462.06;5029084;28;102900;-62
2022/03/01 06:12:13;;;;;;;12.30;8.13;;;;;;;-4.24;100.00;97471.53;5028587;28;102180;-62
2022/03/01 06:14:40;;;;;;;15.27;8.53;;;;;;;-4.11;100.00;97464.31;5030285;28;103246;-62
2022/03/01 06:17:07;;;;;;;12.80;7.90;;;;;;;-4.37;100.00;97464.94;5027719;28;105274;-62
2022/03/01 06:19:34;;;;;;;14.20;8.73;;;;;;;-4.34;100.00;97477.63;5029762;28;102050;-62
2022/03/01 06:22:04;;;;;;;16.90;9.20;;;;;;;-4.33;100.00;97480.13;5030186;28;102590;-62
2022/03/01 06:24:30;;;;;;;11.47;8.00;;;;;;;-4.22;100.00;97494.75;5032521;28;102667;-62
2022/03/01 06:26:58;;;;;;;17.03;10.87;;;;;;;-4.12;100.00;97491.25;5028105;28;105117;-62
2022/03/01 06:29:24;;;;;;;17.77;10.80;;;;;;;-4.16;100.00;97495.06;5027804;28;101949;-62
2022/03/01 06:31:52;;;;;;;17.83;10.50;;;;;;;-4.22;100.00;97489.56;5027234;28;101873;-62
2022/03/01 06:34:19;;;;;;;15.03;9.13;;;;;;;-3.99;100.00;97502.19;5027261;28;105191;-62
2022/03/01 06:36:46;;;;;;;13.70;9.17;;;;;;;-3.99;100.00;97510.00;5029028;28;102706;-62
2022/03/01 06:39:15;;;;;;;13.83;9.27;;;;;;;-3.79;100.00;97509.06;5029613;28;101903;-62
2022/03/01 06:41:41;;;;;;;14.73;8.87;;;;;;;-3.67;100.00;97507.97;5028377;28;105419;-62
2022/03/01 06:44:09;;;;;;;13.97;9.00;;;;;;;-3.57;100.00;97503.63;5027464;28;105147;-62
2022/03/01 06:46:36;;;;;;;12.97;8.30;;;;;;;-3.45;100.00;97507.72;5035301;27;102016;-62
2022/03/01 06:49:05;;;;;;;15.07;8.93;;;;;;;-3.28;100.00;97499.22;5031880;28;103038;-62
2022/03/01 06:51:32;;;;;;;14.27;8.57;;;;;;;-3.14;100.00;97490.16;5032334;28;101942;-62
2022/03/01 06:53:59;;;;;;;12.80;7.93;;;;;;;-2.95;100.00;97495.34;5033780;28;102795;-62
2022/03/01 06:56:28;;;;;;;14.50;8.73;;;;;;;-2.80;100.00;97497.38;5031471;28;104291;-62
2022/03/01 06:59:00;;;;;;;13.10;8.83;;;;;;;-3.01;100.00;97501.13;5031528;28;102187;-62
2022/03/01 07:01:27;;;;;;;15.93;10.50;;;;;;;-2.99;100.00;97497.44;5031951;28;105165;-62
2022/03/01 07:03:54;;;;;;;14.60;10.27;;;;;;;-2.74;100.00;97507.22;5031588;28;102887;-62
2022/03/01 07:06:21;;;;;;;14.93;10.13;;;;;;;-2.79;100.00;97512.00;5032322;27;101809;-62
2022/03/01 07:08:51;;;;;;;19.13;9.47;;;;;;;-2.68;100.00;97504.03;5034001;28;105698;-62
2022/03/01 07:11:49;;;;;;;15.57;9.43;;;;;;;-2.37;100.00;97513.25;5033422;28;101813;-62
2022/03/01 07:14:16;;;;;;;12.07;8.43;;;;;;;-2.50;100.00;97501.50;5030173;28;105180;-60
2022/03/01 07:16:43;;;;;;;13.50;8.43;;;;;;;-2.50;100.00;97502.34;5030904;28;105862;-60
2022/03/01 07:19:16;;;;;;;19.00;9.00;;;;;;;-2.39;100.00;97499.56;5033045;27;101814;-60
2022/03/01 07:21:43;;;;;;;12.83;9.07;;;;;;;-2.29;100.00;97500.31;5033520;28;102621;-61
2022/03/01 07:24:10;;;;;;;16.27;8.67;;;;;;;-2.23;100.00;97504.16;5030921;28;105811;-61
2022/03/01 07:26:37;;;;;;;12.90;8.63;;;;;;;-2.29;100.00;97499.50;5032281;28;101862;-61
2022/03/01 07:29:19;;;;;;;14.70;9.27;;;;;;;-2.26;100.00;97496.59;5032883;28;102819;-61
2022/03/01 07:31:46;;;;;;;13.80;9.30;;;;;;;-2.06;100.00;97488.56;5009798;28;105438;-61
2022/03/01 07:34:13;;;;;;;15.10;8.97;;;;;;;-2.09;100.00;97491.44;4992766;28;102403;-61
2022/03/01 07:36:40;;;;;;;15.37;8.40;;;;;;;-1.98;100.00;97488.66;4986925;28;105340;-61
2022/03/01 07:39:09;;;;;;;14.30;9.00;;;;;;;-1.74;100.00;97485.47;4973141;28;101855;-60
2022/03/01 07:41:37;;;;;;;12.97;8.00;;;;;;;-1.79;100.00;97477.28;4987199;28;102364;-61
2022/03/01 07:44:05;;;;;;;11.50;8.53;;;;;;;-1.56;100.00;97476.69;4991851;28;102545;-61
2022/03/01 07:46:33;;;;;;;13.07;9.00;;;;;;;-1.56;100.00;97468.03;4992474;28;101877;-61
2022/03/01 07:49:12;;;;;;;11.73;7.67;;;;;;;-1.56;100.00;97463.66;4991177;28;106525;-61
2022/03/01 07:51:40;;;;;;;12.17;7.60;;;;;;;-1.46;100.00;97460.97;4991897;28;102767;-59
2022/03/01 07:54:07;;;;;;;13.70;7.90;;;;;;;-1.28;100.00;97451.31;4993390;28;102273;-60
2022/03/01 07:56:36;;;;;;;9.90;6.80;;;;;;;-1.29;100.00;97455.75;4991153;28;103184;-60
2022/03/01 07:59:05;;;;;;;9.87;7.20;;;;;;;-1.28;100.00;97452.16;4991598;28;101872;-60
2022/03/01 08:01:35;;;;;;;11.30;7.80;;;;;;;-1.04;100.00;97457.53;4987444;28;106503;-60
2022/03/01 08:04:03;;;;;;;11.47;7.03;;;;;;;-0.81;100.00;97453.47;4971802;28;103358;-60
2022/03/01 08:06:31;;;;;;;12.27;8.07;;;;;;;-0.50;100.00;97443.34;4972559;28;102226;-60
2022/03/01 08:08:59;;;;;;;10.03;6.70;;;;;;;-0.40;100.00;97447.47;4971958;28;102444;-60
2022/03/01 08:11:27;;;;;;;13.47;7.07;;;;;;;-0.11;100.00;97445.28;4969923;28;104844;-60
2022/03/01 08:13:56;;;;;;;9.17;6.57;;;;;;;-0.15;100.00;97446.59;4989941;28;101898;-60
2022/03/01 08:16:24;;;;;;;13.07;7.27;;;;;;;0.26;100.00;97448.31;4990019;28;103588;-60
2022/03/01 08:18:55;;;;;;;8.37;6.23;;;;;;;0.54;100.00;97452.28;4991590;28;101895;-60
2022/03/01 08:21:24;;;;;;;10.30;6.97;;;;;;;0.97;100.00;97447.56;4992257;28;102486;-61
2022/03/01 08:23:52;;;;;;;10.03;6.77;;;;;;;1.16;100.00;97449.00;4989708;28;105669;-61
2022/03/01 08:26:20;;;;;;;8.87;6.93;;;;;;;1.36;98.26;97455.50;4991749;28;101949;-61
2022/03/01 08:28:48;;;;;;;7.43;6.37;;;;;;;1.55;95.19;97449.88;4990453;28;104656;-60
2022/03/01 08:31:16;;;;;;;8.70;6.80;;;;;;;1.52;99.08;97460.69;5038499;27;105253;-61
2022/03/01 08:33:43;;;;;;;13.10;7.80;;;;;;;1.10;98.98;97471.41;5031508;28;101774;-61
2022/03/01 08:36:12;;;;;;;12.67;6.80;;;;;;;1.32;100.00;97473.34;5034553;28;102601;-61
2022/03/01 08:38:40;;;;;;;12.17;7.10;;;;;;;1.34;100.00;97474.03;5030178;28;101954;-60
2022/03/01 08:41:08;;;;;;;9.13;7.23;;;;;;;1.39;98.18;97470.91;5031531;28;102903;-61
2022/03/01 08:43:34;;;;;;;10.17;6.93;;;;;;;1.17;95.57;97472.41;5031226;27;102619;-60
2022/03/01 08:46:01;;;;;;;10.83;6.87;;;;;;;1.26;96.12;97481.09;5031645;28;101894;-60
2022/03/01 08:48:33;;;;;;;10.43;7.00;;;;;;;1.14;93.88;97469.28;5029301;28;105314;-61
2022/03/01 08:50:59;;;;;;;8.37;6.27;;;;;;;1.44;96.03;97472.03;5029449;28;105310;-60
2022/03/01 08:53:28;;;;;;;7.97;5.97;;;;;;;1.53;94.42;97478.88;5030272;28;101813;-60
2022/03/01 08:55:56;;;;;;;9.17;5.77;;;;;;;1.82;87.78;97478.31;5029546;28;103806;-60
2022/03/01 08:58:27;;;;;;;9.07;6.40;;;;;;;1.96;88.95;97475.78;5031804;28;103716;-60
2022/03/01 09:00:54;;;;;;;7.30;5.97;;;;;;;2.36;85.99;97477.41;5029184;28;105201;-60
2022/03/01 09:03:23;;;;;;;8.17;5.67;;;;;;;2.65;82.87;97477.53;5029194;28;104994;-60
2022/03/01 09:05:50;;;;;;;8.23;5.93;;;;;;;2.81;85.76;97473.00;5030168;28;102136;-60
2022/03/01 09:08:34;;;;;;;7.33;5.67;;;;;;;2.48;85.76;97476.00;5029776;27;105595;-60
2022/03/01 09:11:01;;;;;;;7.03;5.57;;;;;;;2.88;90.01;97467.84;5027976;28;105599;-60
2022/03/01 09:13:29;;;;;;;8.13;5.90;;;;;;;2.97;85.42;97466.78;5029432;28;102205;-60
2022/03/01 09:15:57;;;;;;;6.47;5.57;;;;;;;2.85;81.09;97469.00;5028961;28;105646;-60
2022/03/01 09:18:25;;;;;;;6.00;5.00;;;;;;;3.07;82.06;97464.72;5029814;28;102626;-60
2022/03/01 09:20:52;;;;;;;8.20;5.03;;;;;;;3.35;78.42;97456.09;5016416;28;101947;-60
2022/03/01 09:23:19;;;;;;;6.30;4.80;;;;;;;3.36;75.04;97465.63;5030258;28;102780;-60
2022/03/01 09:25:47;;;;;;;7.17;5.10;;;;;;;3.21;71.85;97458.69;5029108;28;101880;-60
2022/03/01 09:28:14;;;;;;;6.10;5.00;;;;;;;3.58;71.91;97461.25;5029686;28;105707;-60
2022/03/01 09:30:42;;;;;;;7.00;5.07;;;;;;;3.69;71.78;97448.50;5029544;27;102462;-60
2022/03/01 09:33:09;;;;;;;8.37;5.00;;;;;;;3.91;67.46;97444.94;5030498;28;101742;-60
2022/03/01 09:35:36;;;;;;;6.00;4.87;;;;;;;4.37;65.64;97446.28;5029414;28;105575;-60
2022/03/01 09:38:03;;;;;;;6.87;4.60;;;;;;;4.60;62.09;97448.78;5028237;28;105524;-60
2022/03/01 09:40:30;;;;;;;5.33;4.57;;;;;;;4.69;57.62;97451.09;5029105;28;102312;-60
2022/03/01 09:43:00;;;;;;;5.30;4.20;;;;;;;4.76;54.58;97449.31;5033527;28;102594;-60
2022/03/01 09:45:27;;;;;;;4.60;4.13;;;;;;;4.99;53.28;97443.88;5030272;27;101967;-60
2022/03/01 09:47:54;;;;;;;6.47;4.53;;;;;;;5.10;52.98;97436.28;5030058;28;102914;-60
2022/03/01 09:50:27;;;;;;;6.97;5.00;;;;;;;5.42;50.71;97434.88;5030120;28;102580;-60
2022/03/01 09:52:55;;;;;;;6.20;4.43;;;;;;;5.55;48.75;97430.50;5029142;28;102608;-60
2022/03/01 09:55:22;;;;;;;5.57;4.83;;;;;;;5.56;48.02;97423.41;5030138;27;101663;-60
2022/03/01 09:57:50;;;;;;;5.73;4.57;;;;;;;5.52;49.05;97419.53;5029727;28;103147;-60
2022/03/01 10:00:19;;;;;;;6.23;5.17;;;;;;;5.79;48.44;97418.66;5030483;27;101678;-60
2022/03/01 10:02:47;;;;;;;8.03;4.57;;;;;;;5.93;48.56;97420.38;5028773;28;105048;-60
2022/03/01 10:05:15;;;;;;;6.43;4.53;;;;;;;5.91;48.66;97410.03;5031426;27;102165;-60
2022/03/01 10:07:45;;;;;;;6.97;5.37;;;;;;;6.15;47.19;97411.31;5028697;28;105496;-61
2022/03/01 10:10:16;;;;;;;5.60;4.63;;;;;;;6.16;45.68;97408.50;5027924;28;106049;-60
2022/03/01 10:12:44;;;;;;;5.63;4.63;;;;;;;6.01;44.60;97407.03;5028481;28;101754;-60
2022/03/01 10:15:13;;;;;;;7.27;4.40;;;;;;;6.36;46.06;97398.81;5028598;28;105916;-60
2022/03/01 10:17:43;;;;;;;5.47;4.60;;;;;;;6.36;44.28;97396.16;5029190;27;103059;-60
2022/03/01 10:20:12;;;;;;;6.77;3.90;;;;;;;6.62;42.92;97395.41;5029610;27;102530;-60
2022/03/01 10:22:43;;;;;;;4.47;3.70;;;;;;;6.92;42.75;97388.75;5028407;28;105134;-60
2022/03/01 10:25:10;;;;;;;5.43;4.20;;;;;;;6.93;43.45;97387.72;5033238;28;102621;-60
2022/03/01 10:27:38;;;;;;;7.27;4.53;;;;;;;7.08;42.52;97390.94;5029634;28;102456;-60
2022/03/01 10:30:06;;;;;;;4.40;4.00;;;;;;;6.90;42.47;97378.34;5027346;28;104629;-61
2022/03/01 10:32:36;;;;;;;6.37;4.13;;;;;;;6.99;42.53;97384.25;5028483;28;102125;-60
2022/03/01 10:35:06;;;;;;;4.70;4.30;;;;;;;7.24;42.54;97377.31;5029985;27;102331;-60
2022/03/01 10:37:35;;;;;;;4.53;4.07;;;;;;;6.90;42.37;97375.72;5027025;28;105751;-60
2022/03/01 10:40:17;;;;;;;5.50;4.20;;;;;;;7.08;40.62;97375.06;5029767;27;101705;-60
2022/03/01 10:42:45;;;;;;;7.40;4.30;;;;;;;7.05;40.87;97375.50;5029640;28;102342;-60
2022/03/01 10:45:12;;;;;;;6.33;4.27;;;;;;;7.44;41.92;97375.47;5029391;28;102485;-60
2022/03/01 10:47:40;;;;;;;5.50;4.20;;;;;;;7.82;41.05;97371.06;5031459;28;102373;-60
2022/03/01 10:50:11;;;;;;;4.63;3.83;;;;;;;7.65;40.89;97356.69;5027666;28;104952;-60
2022/03/01 10:52:40;;;;;;;5.07;3.97;;;;;;;7.58;39.90;97355.91;5028093;28;102010;-60
2022/03/01 10:55:22;;;;;;;5.97;4.47;;;;;;;7.74;38.62;97352.78;5028168;28;106302;-60
2022/03/01 10:57:58;;;;;;;6.70;4.40;;;;;;;7.95;37.99;97339.22;5027422;28;105718;-60
2022/03/01 11:00:25;;;;;;;5.13;4.10;;;;;;;7.85;38.61;97341.53;5028315;28;102159;-60
2022/03/01 11:02:52;;;;;;;4.43;3.97;;;;;;;8.13;38.87;97342.03;5028084;28;104054;-60
2022/03/01 11:05:21;;;;;;;5.93;4.30;;;;;;;8.48;37.91;97336.13;5028780;28;102677;-60
2022/03/01 11:07:51;;;;;;;4.90;4.30;;;;;;;7.97;38.26;97324.75;5027939;28;102002;-60
2022/03/01 11:10:19;;;;;;;4.97;4.33;;;;;;;7.82;39.69;97323.41;5030961;28;104983;-60
2022/03/01 11:12:48;;;;;;;4.43;4.00;;;;;;;7.65;41.80;97317.78;5028096;28;102410;-61
2022/03/01 11:15:24;;;;;;;5.17;4.57;;;;;;;7.83;39.70;97320.56;5027930;28;105745;-60
2022/03/01 11:17:59;;;;;;;6.20;3.90;;;;;;;7.82;39.00;97312.81;5026898;28;104584;-60